sensor_id;sensor_type;location;lat;lon;timestamp;temperature;humidity
8095;DHT22;4090;49.270;8.696;2022-07-29T00:01:17;26.30;80.90
8095;DHT22;4090;49.270;8.696;2022-07-29T00:03:59;26.20;81.10
8095;DHT22;4090;49.270;8.696;2022-07-29T00:06:41;26.20;81.60
8095;DHT22;4090;49.270;8.696;2022-07-29T00:09:24;26.20;82.00
8095;DHT22;4090;49.270;8.696;2022-07-29T00:12:06;26.10;82.30
8095;DHT22;4090;49.270;8.696;2022-07-29T00:14:48;26.10;82.50
8095;DHT22;4090;49.270;8.696;2022-07-29T00:17:30;26.10;82.90
8095;DHT22;4090;49.270;8.696;2022-07-29T00:20:11;26.00;83.30
8095;DHT22;4090;49.270;8.696;2022-07-29T00:22:53;26.00;83.60
8095;DHT22;4090;49.270;8.696;2022-07-29T00:25:36;26.00;84.00
8095;DHT22;4090;49.270;8.696;2022-07-29T00:28:18;26.00;84.60
8095;DHT22;4090;49.270;8.696;2022-07-29T00:31:00;26.00;84.90
8095;DHT22;4090;49.270;8.696;2022-07-29T00:33:42;25.90;85.00
8095;DHT22;4090;49.270;8.696;2022-07-29T00:36:24;25.90;85.20
8095;DHT22;4090;49.270;8.696;2022-07-29T00:39:04;25.90;85.60
8095;DHT22;4090;49.270;8.696;2022-07-29T00:41:48;25.90;85.90
8095;DHT22;4090;49.270;8.696;2022-07-29T00:44:30;25.90;86.00
8095;DHT22;4090;49.270;8.696;2022-07-29T00:47:12;25.90;86.30
8095;DHT22;4090;49.270;8.696;2022-07-29T00:49:53;25.90;87.50
8095;DHT22;4090;49.270;8.696;2022-07-29T00:52:37;25.80;86.80
8095;DHT22;4090;49.270;8.696;2022-07-29T00:55:20;25.80;87.00
8095;DHT22;4090;49.270;8.696;2022-07-29T00:58:03;25.80;87.20
8095;DHT22;4090;49.270;8.696;2022-07-29T01:00:46;25.80;87.60
8095;DHT22;4090;49.270;8.696;2022-07-29T01:03:27;25.80;87.80
8095;DHT22;4090;49.270;8.696;2022-07-29T01:06:09;25.80;88.30
8095;DHT22;4090;49.270;8.696;2022-07-29T01:08:51;25.80;88.70
8095;DHT22;4090;49.270;8.696;2022-07-29T01:11:34;25.80;88.80
8095;DHT22;4090;49.270;8.696;2022-07-29T01:14:21;25.70;88.80
8095;DHT22;4090;49.270;8.696;2022-07-29T01:17:10;25.70;89.10
8095;DHT22;4090;49.270;8.696;2022-07-29T01:19:58;25.60;89.30
8095;DHT22;4090;49.270;8.696;2022-07-29T01:26:45;25.50;90.00
8095;DHT22;4090;49.270;8.696;2022-07-29T01:29:32;25.50;90.20
8095;DHT22;4090;49.270;8.696;2022-07-29T01:32:20;25.50;90.30
8095;DHT22;4090;49.270;8.696;2022-07-29T01:35:06;25.40;90.40
8095;DHT22;4090;49.270;8.696;2022-07-29T01:37:55;25.40;90.50
8095;DHT22;4090;49.270;8.696;2022-07-29T01:40:43;25.40;90.70
8095;DHT22;4090;49.270;8.696;2022-07-29T01:43:32;25.40;90.90
8095;DHT22;4090;49.270;8.696;2022-07-29T01:46:21;25.30;91.00
8095;DHT22;4090;49.270;8.696;2022-07-29T01:49:10;25.30;91.30
8095;DHT22;4090;49.270;8.696;2022-07-29T01:51:56;25.30;91.50
8095;DHT22;4090;49.270;8.696;2022-07-29T01:54:41;25.20;91.60
8095;DHT22;4090;49.270;8.696;2022-07-29T01:57:27;25.10;91.80
8095;DHT22;4090;49.270;8.696;2022-07-29T02:00:11;25.10;92.10
8095;DHT22;4090;49.270;8.696;2022-07-29T02:02:56;25.10;92.40
8095;DHT22;4090;49.270;8.696;2022-07-29T02:05:41;25.00;92.70
8095;DHT22;4090;49.270;8.696;2022-07-29T02:08:25;24.90;93.00
8095;DHT22;4090;49.270;8.696;2022-07-29T02:11:08;24.90;93.20
8095;DHT22;4090;49.270;8.696;2022-07-29T02:13:52;24.80;93.50
8095;DHT22;4090;49.270;8.696;2022-07-29T02:16:37;24.80;93.70
8095;DHT22;4090;49.270;8.696;2022-07-29T02:19:23;24.80;93.90
8095;DHT22;4090;49.270;8.696;2022-07-29T02:22:09;24.70;93.90
8095;DHT22;4090;49.270;8.696;2022-07-29T02:24:52;24.70;94.20
8095;DHT22;4090;49.270;8.696;2022-07-29T02:27:35;24.70;94.20
8095;DHT22;4090;49.270;8.696;2022-07-29T02:30:19;24.80;94.30
8095;DHT22;4090;49.270;8.696;2022-07-29T02:33:03;24.80;94.30
8095;DHT22;4090;49.270;8.696;2022-07-29T02:35:47;24.80;94.50
8095;DHT22;4090;49.270;8.696;2022-07-29T02:38:30;24.80;94.60
8095;DHT22;4090;49.270;8.696;2022-07-29T02:41:40;24.80;94.60
8095;DHT22;4090;49.270;8.696;2022-07-29T02:44:24;24.90;94.60
8095;DHT22;4090;49.270;8.696;2022-07-29T02:47:13;24.90;94.70
8095;DHT22;4090;49.270;8.696;2022-07-29T02:50:02;24.90;94.80
8095;DHT22;4090;49.270;8.696;2022-07-29T02:52:52;24.90;94.90
8095;DHT22;4090;49.270;8.696;2022-07-29T02:55:39;24.90;94.90
8095;DHT22;4090;49.270;8.696;2022-07-29T02:58:25;24.80;95.00
8095;DHT22;4090;49.270;8.696;2022-07-29T03:01:11;24.80;94.90
8095;DHT22;4090;49.270;8.696;2022-07-29T03:03:55;24.80;94.70
8095;DHT22;4090;49.270;8.696;2022-07-29T03:06:38;24.60;94.80
8095;DHT22;4090;49.270;8.696;2022-07-29T03:09:22;24.60;95.10
8095;DHT22;4090;49.270;8.696;2022-07-29T03:12:05;24.50;95.20
8095;DHT22;4090;49.270;8.696;2022-07-29T03:14:48;24.50;95.40
8095;DHT22;4090;49.270;8.696;2022-07-29T03:17:31;24.50;95.50
8095;DHT22;4090;49.270;8.696;2022-07-29T03:20:13;24.40;95.70
8095;DHT22;4090;49.270;8.696;2022-07-29T03:22:55;24.40;95.90
8095;DHT22;4090;49.270;8.696;2022-07-29T03:25:38;24.40;95.90
8095;DHT22;4090;49.270;8.696;2022-07-29T03:28:21;24.30;96.00
8095;DHT22;4090;49.270;8.696;2022-07-29T03:31:03;24.30;95.90
8095;DHT22;4090;49.270;8.696;2022-07-29T03:33:44;24.30;96.00
8095;DHT22;4090;49.270;8.696;2022-07-29T03:36:26;24.30;96.00
8095;DHT22;4090;49.270;8.696;2022-07-29T03:39:09;24.30;96.00
8095;DHT22;4090;49.270;8.696;2022-07-29T03:41:55;24.20;96.00
8095;DHT22;4090;49.270;8.696;2022-07-29T03:44:39;24.20;96.00
8095;DHT22;4090;49.270;8.696;2022-07-29T03:47:24;24.20;96.00
8095;DHT22;4090;49.270;8.696;2022-07-29T03:50:09;24.20;96.10
8095;DHT22;4090;49.270;8.696;2022-07-29T03:52:52;24.20;96.10
8095;DHT22;4090;49.270;8.696;2022-07-29T03:55:40;24.20;96.20
8095;DHT22;4090;49.270;8.696;2022-07-29T03:58:26;24.10;96.40
8095;DHT22;4090;49.270;8.696;2022-07-29T04:01:09;24.00;96.30
8095;DHT22;4090;49.270;8.696;2022-07-29T04:03:51;24.00;96.30
8095;DHT22;4090;49.270;8.696;2022-07-29T04:06:38;24.00;96.50
8095;DHT22;4090;49.270;8.696;2022-07-29T04:09:20;24.00;96.60
8095;DHT22;4090;49.270;8.696;2022-07-29T04:12:03;24.00;96.40
8095;DHT22;4090;49.270;8.696;2022-07-29T04:14:46;24.00;96.10
8095;DHT22;4090;49.270;8.696;2022-07-29T04:17:28;23.90;95.80
8095;DHT22;4090;49.270;8.696;2022-07-29T04:20:11;23.90;95.60
8095;DHT22;4090;49.270;8.696;2022-07-29T04:22:53;23.90;95.40
8095;DHT22;4090;49.270;8.696;2022-07-29T04:25:37;23.90;95.30
8095;DHT22;4090;49.270;8.696;2022-07-29T04:28:19;23.80;95.20
8095;DHT22;4090;49.270;8.696;2022-07-29T04:31:02;23.90;95.10
8095;DHT22;4090;49.270;8.696;2022-07-29T04:33:44;23.90;95.00
8095;DHT22;4090;49.270;8.696;2022-07-29T04:36:26;23.90;95.00
8095;DHT22;4090;49.270;8.696;2022-07-29T04:39:07;23.80;95.00
8095;DHT22;4090;49.270;8.696;2022-07-29T04:41:50;23.80;95.10
8095;DHT22;4090;49.270;8.696;2022-07-29T04:44:32;23.70;95.10
8095;DHT22;4090;49.270;8.696;2022-07-29T04:47:15;23.70;95.20
8095;DHT22;4090;49.270;8.696;2022-07-29T04:49:57;23.70;95.30
8095;DHT22;4090;49.270;8.696;2022-07-29T04:52:39;23.70;95.40
8095;DHT22;4090;49.270;8.696;2022-07-29T04:55:21;23.70;95.50
8095;DHT22;4090;49.270;8.696;2022-07-29T04:58:03;23.80;95.60
8095;DHT22;4090;49.270;8.696;2022-07-29T05:00:44;23.80;95.70
8095;DHT22;4090;49.270;8.696;2022-07-29T05:03:28;23.90;95.70
8095;DHT22;4090;49.270;8.696;2022-07-29T05:06:10;23.90;95.80
8095;DHT22;4090;49.270;8.696;2022-07-29T05:08:51;23.90;95.80
8095;DHT22;4090;49.270;8.696;2022-07-29T05:11:33;23.90;95.90
8095;DHT22;4090;49.270;8.696;2022-07-29T05:14:15;23.90;96.20
8095;DHT22;4090;49.270;8.696;2022-07-29T05:16:57;23.90;96.50
8095;DHT22;4090;49.270;8.696;2022-07-29T05:19:40;23.80;96.70
8095;DHT22;4090;49.270;8.696;2022-07-29T05:22:22;23.80;96.90
8095;DHT22;4090;49.270;8.696;2022-07-29T05:25:05;23.90;97.10
8095;DHT22;4090;49.270;8.696;2022-07-29T05:27:47;23.90;97.30
8095;DHT22;4090;49.270;8.696;2022-07-29T05:30:28;23.90;97.20
8095;DHT22;4090;49.270;8.696;2022-07-29T05:33:10;23.90;97.10
8095;DHT22;4090;49.270;8.696;2022-07-29T05:35:53;23.90;96.90
8095;DHT22;4090;49.270;8.696;2022-07-29T05:38:36;24.00;96.80
8095;DHT22;4090;49.270;8.696;2022-07-29T05:41:17;24.00;96.80
8095;DHT22;4090;49.270;8.696;2022-07-29T05:43:59;24.00;96.90
8095;DHT22;4090;49.270;8.696;2022-07-29T05:46:41;24.00;97.50
8095;DHT22;4090;49.270;8.696;2022-07-29T05:49:23;24.00;97.60
8095;DHT22;4090;49.270;8.696;2022-07-29T05:52:07;24.00;97.30
8095;DHT22;4090;49.270;8.696;2022-07-29T05:54:49;24.10;97.50
8095;DHT22;4090;49.270;8.696;2022-07-29T05:57:31;24.10;97.70
8095;DHT22;4090;49.270;8.696;2022-07-29T06:00:14;24.10;97.90
8095;DHT22;4090;49.270;8.696;2022-07-29T06:02:56;24.20;98.00
8095;DHT22;4090;49.270;8.696;2022-07-29T06:05:38;24.20;98.10
8095;DHT22;4090;49.270;8.696;2022-07-29T06:08:21;24.20;98.10
8095;DHT22;4090;49.270;8.696;2022-07-29T06:11:04;24.20;98.10
8095;DHT22;4090;49.270;8.696;2022-07-29T06:13:46;24.20;98.10
8095;DHT22;4090;49.270;8.696;2022-07-29T06:16:28;24.20;98.20
8095;DHT22;4090;49.270;8.696;2022-07-29T06:19:10;24.20;98.10
8095;DHT22;4090;49.270;8.696;2022-07-29T06:21:51;24.30;98.30
8095;DHT22;4090;49.270;8.696;2022-07-29T06:24:36;24.30;98.30
8095;DHT22;4090;49.270;8.696;2022-07-29T06:27:22;24.30;98.30
8095;DHT22;4090;49.270;8.696;2022-07-29T06:30:04;24.40;98.40
8095;DHT22;4090;49.270;8.696;2022-07-29T06:32:47;24.40;98.40
8095;DHT22;4090;49.270;8.696;2022-07-29T06:35:29;24.40;98.30
8095;DHT22;4090;49.270;8.696;2022-07-29T06:38:11;24.40;98.30
8095;DHT22;4090;49.270;8.696;2022-07-29T06:40:54;24.50;98.40
8095;DHT22;4090;49.270;8.696;2022-07-29T06:43:44;24.50;98.30
8095;DHT22;4090;49.270;8.696;2022-07-29T06:46:26;24.50;98.40
8095;DHT22;4090;49.270;8.696;2022-07-29T06:49:08;24.50;98.30
8095;DHT22;4090;49.270;8.696;2022-07-29T06:51:50;24.60;98.20
8095;DHT22;4090;49.270;8.696;2022-07-29T06:54:32;24.60;98.20
8095;DHT22;4090;49.270;8.696;2022-07-29T06:57:15;24.60;98.00
8095;DHT22;4090;49.270;8.696;2022-07-29T06:59:57;24.60;97.70
8095;DHT22;4090;49.270;8.696;2022-07-29T07:02:38;24.70;97.60
8095;DHT22;4090;49.270;8.696;2022-07-29T07:05:20;24.70;97.60
8095;DHT22;4090;49.270;8.696;2022-07-29T07:08:03;24.70;97.90
8095;DHT22;4090;49.270;8.696;2022-07-29T07:10:45;24.80;98.10
8095;DHT22;4090;49.270;8.696;2022-07-29T07:13:29;24.80;98.20
8095;DHT22;4090;49.270;8.696;2022-07-29T07:16:14;24.90;98.20
8095;DHT22;4090;49.270;8.696;2022-07-29T07:18:56;24.90;98.10
8095;DHT22;4090;49.270;8.696;2022-07-29T07:21:38;24.90;98.10
8095;DHT22;4090;49.270;8.696;2022-07-29T07:24:20;24.90;98.20
8095;DHT22;4090;49.270;8.696;2022-07-29T07:27:02;25.00;98.20
8095;DHT22;4090;49.270;8.696;2022-07-29T07:29:45;25.00;98.20
8095;DHT22;4090;49.270;8.696;2022-07-29T07:32:27;25.10;98.20
8095;DHT22;4090;49.270;8.696;2022-07-29T07:35:10;25.10;98.10
8095;DHT22;4090;49.270;8.696;2022-07-29T07:37:54;25.10;97.60
8095;DHT22;4090;49.270;8.696;2022-07-29T07:40:36;25.10;97.70
8095;DHT22;4090;49.270;8.696;2022-07-29T07:43:18;25.10;97.80
8095;DHT22;4090;49.270;8.696;2022-07-29T07:46:01;25.10;98.00
8095;DHT22;4090;49.270;8.696;2022-07-29T07:48:43;25.20;97.80
8095;DHT22;4090;49.270;8.696;2022-07-29T07:51:25;25.20;97.30
8095;DHT22;4090;49.270;8.696;2022-07-29T07:54:07;25.30;97.20
8095;DHT22;4090;49.270;8.696;2022-07-29T07:56:49;25.30;97.20
8095;DHT22;4090;49.270;8.696;2022-07-29T07:59:31;25.30;97.20
8095;DHT22;4090;49.270;8.696;2022-07-29T08:02:14;25.40;97.20
8095;DHT22;4090;49.270;8.696;2022-07-29T08:04:56;25.40;97.20
8095;DHT22;4090;49.270;8.696;2022-07-29T08:07:38;25.40;97.00
8095;DHT22;4090;49.270;8.696;2022-07-29T08:10:20;25.40;96.90
8095;DHT22;4090;49.270;8.696;2022-07-29T08:13:16;25.50;96.70
8095;DHT22;4090;49.270;8.696;2022-07-29T08:15:59;25.40;96.40
8095;DHT22;4090;49.270;8.696;2022-07-29T08:18:44;25.50;96.30
8095;DHT22;4090;49.270;8.696;2022-07-29T08:21:26;25.40;96.20
8095;DHT22;4090;49.270;8.696;2022-07-29T08:24:08;25.50;96.50
8095;DHT22;4090;49.270;8.696;2022-07-29T08:27:07;25.50;96.50
8095;DHT22;4090;49.270;8.696;2022-07-29T08:29:49;25.50;96.30
8095;DHT22;4090;49.270;8.696;2022-07-29T08:32:31;25.50;96.30
8095;DHT22;4090;49.270;8.696;2022-07-29T08:35:14;25.60;96.50
8095;DHT22;4090;49.270;8.696;2022-07-29T08:37:56;25.60;96.40
8095;DHT22;4090;49.270;8.696;2022-07-29T08:40:39;25.60;96.30
8095;DHT22;4090;49.270;8.696;2022-07-29T08:43:21;25.70;96.30
8095;DHT22;4090;49.270;8.696;2022-07-29T08:46:03;25.60;96.30
8095;DHT22;4090;49.270;8.696;2022-07-29T08:48:45;25.70;96.40
8095;DHT22;4090;49.270;8.696;2022-07-29T08:51:30;25.70;97.90
8095;DHT22;4090;49.270;8.696;2022-07-29T08:54:16;25.70;97.70
8095;DHT22;4090;49.270;8.696;2022-07-29T08:56:59;25.70;97.40
8095;DHT22;4090;49.270;8.696;2022-07-29T08:59:42;25.80;97.30
8095;DHT22;4090;49.270;8.696;2022-07-29T09:02:28;25.80;97.00
8095;DHT22;4090;49.270;8.696;2022-07-29T09:05:10;25.80;96.80
8095;DHT22;4090;49.270;8.696;2022-07-29T09:07:54;25.90;96.60
8095;DHT22;4090;49.270;8.696;2022-07-29T09:10:36;25.90;96.50
8095;DHT22;4090;49.270;8.696;2022-07-29T09:13:18;25.90;96.40
8095;DHT22;4090;49.270;8.696;2022-07-29T09:16:00;26.00;96.60
8095;DHT22;4090;49.270;8.696;2022-07-29T09:18:44;26.00;96.80
8095;DHT22;4090;49.270;8.696;2022-07-29T09:21:40;26.00;96.40
8095;DHT22;4090;49.270;8.696;2022-07-29T09:24:45;26.00;95.60
8095;DHT22;4090;49.270;8.696;2022-07-29T09:27:27;26.00;95.60
8095;DHT22;4090;49.270;8.696;2022-07-29T09:30:14;26.00;95.60
8095;DHT22;4090;49.270;8.696;2022-07-29T09:32:57;26.10;95.70
8095;DHT22;4090;49.270;8.696;2022-07-29T09:35:41;26.10;95.60
8095;DHT22;4090;49.270;8.696;2022-07-29T09:38:23;26.20;95.60
8095;DHT22;4090;49.270;8.696;2022-07-29T09:41:06;26.20;95.40
8095;DHT22;4090;49.270;8.696;2022-07-29T09:43:55;26.20;95.60
8095;DHT22;4090;49.270;8.696;2022-07-29T09:46:37;26.30;95.60
8095;DHT22;4090;49.270;8.696;2022-07-29T09:49:19;26.30;95.20
8095;DHT22;4090;49.270;8.696;2022-07-29T09:52:06;26.30;95.20
8095;DHT22;4090;49.270;8.696;2022-07-29T09:54:48;26.40;95.20
8095;DHT22;4090;49.270;8.696;2022-07-29T09:57:32;26.40;94.90
8095;DHT22;4090;49.270;8.696;2022-07-29T10:00:15;26.50;94.40
8095;DHT22;4090;49.270;8.696;2022-07-29T10:03:00;26.50;93.60
8095;DHT22;4090;49.270;8.696;2022-07-29T10:05:43;26.50;93.30
8095;DHT22;4090;49.270;8.696;2022-07-29T10:08:25;26.60;93.30
8095;DHT22;4090;49.270;8.696;2022-07-29T10:11:12;26.60;93.20
8095;DHT22;4090;49.270;8.696;2022-07-29T10:13:56;26.70;93.20
8095;DHT22;4090;49.270;8.696;2022-07-29T10:16:38;26.80;93.10
8095;DHT22;4090;49.270;8.696;2022-07-29T10:19:20;26.80;92.70
8095;DHT22;4090;49.270;8.696;2022-07-29T10:22:05;26.80;92.20
8095;DHT22;4090;49.270;8.696;2022-07-29T10:24:47;26.80;92.20
8095;DHT22;4090;49.270;8.696;2022-07-29T10:27:29;26.90;92.20
8095;DHT22;4090;49.270;8.696;2022-07-29T10:30:13;26.90;92.10
8095;DHT22;4090;49.270;8.696;2022-07-29T10:33:08;27.00;92.30
8095;DHT22;4090;49.270;8.696;2022-07-29T10:36:02;27.00;91.80
8095;DHT22;4090;49.270;8.696;2022-07-29T10:38:55;27.10;91.20
8095;DHT22;4090;49.270;8.696;2022-07-29T10:41:52;27.10;90.90
8095;DHT22;4090;49.270;8.696;2022-07-29T10:44:40;27.20;90.50
8095;DHT22;4090;49.270;8.696;2022-07-29T10:47:24;27.30;90.30
8095;DHT22;4090;49.270;8.696;2022-07-29T10:50:07;27.40;90.10
8095;DHT22;4090;49.270;8.696;2022-07-29T10:52:53;27.40;88.70
8095;DHT22;4090;49.270;8.696;2022-07-29T10:55:38;27.50;88.30
8095;DHT22;4090;49.270;8.696;2022-07-29T10:58:23;27.60;88.50
8095;DHT22;4090;49.270;8.696;2022-07-29T11:01:30;27.70;88.40
8095;DHT22;4090;49.270;8.696;2022-07-29T11:04:12;27.70;87.80
8095;DHT22;4090;49.270;8.696;2022-07-29T11:07:07;27.80;87.50
8095;DHT22;4090;49.270;8.696;2022-07-29T11:10:19;28.00;86.50
8095;DHT22;4090;49.270;8.696;2022-07-29T11:13:01;28.20;85.60
8095;DHT22;4090;49.270;8.696;2022-07-29T11:15:52;28.30;85.00
8095;DHT22;4090;49.270;8.696;2022-07-29T11:18:36;28.40;84.00
8095;DHT22;4090;49.270;8.696;2022-07-29T11:21:36;28.50;83.70
8095;DHT22;4090;49.270;8.696;2022-07-29T11:24:21;28.70;83.70
8095;DHT22;4090;49.270;8.696;2022-07-29T11:27:13;28.90;83.70
8095;DHT22;4090;49.270;8.696;2022-07-29T11:29:56;29.00;82.50
8095;DHT22;4090;49.270;8.696;2022-07-29T11:32:40;29.10;81.60
8095;DHT22;4090;49.270;8.696;2022-07-29T11:35:23;29.10;81.20
8095;DHT22;4090;49.270;8.696;2022-07-29T11:38:25;29.20;81.00
8095;DHT22;4090;49.270;8.696;2022-07-29T11:41:23;29.30;79.90
8095;DHT22;4090;49.270;8.696;2022-07-29T11:44:05;29.40;79.20
8095;DHT22;4090;49.270;8.696;2022-07-29T11:46:48;29.60;77.70
8095;DHT22;4090;49.270;8.696;2022-07-29T11:49:31;29.80;77.00
8095;DHT22;4090;49.270;8.696;2022-07-29T11:52:14;29.90;75.50
8095;DHT22;4090;49.270;8.696;2022-07-29T11:54:58;30.00;76.30
8095;DHT22;4090;49.270;8.696;2022-07-29T11:57:46;30.10;76.00
8095;DHT22;4090;49.270;8.696;2022-07-29T12:00:30;30.20;74.70
8095;DHT22;4090;49.270;8.696;2022-07-29T12:03:23;30.30;73.70
8095;DHT22;4090;49.270;8.696;2022-07-29T12:06:11;30.30;73.10
8095;DHT22;4090;49.270;8.696;2022-07-29T12:08:56;30.30;73.40
8095;DHT22;4090;49.270;8.696;2022-07-29T12:11:38;30.30;73.70
8095;DHT22;4090;49.270;8.696;2022-07-29T12:14:27;30.40;73.80
8095;DHT22;4090;49.270;8.696;2022-07-29T12:17:24;30.50;73.50
8095;DHT22;4090;49.270;8.696;2022-07-29T12:20:08;30.60;72.50
8095;DHT22;4090;49.270;8.696;2022-07-29T12:22:50;30.70;71.60
8095;DHT22;4090;49.270;8.696;2022-07-29T12:25:35;30.80;70.50
8095;DHT22;4090;49.270;8.696;2022-07-29T12:28:18;30.70;68.80
8095;DHT22;4090;49.270;8.696;2022-07-29T12:31:02;30.80;68.60
8095;DHT22;4090;49.270;8.696;2022-07-29T12:33:52;30.90;67.40
8095;DHT22;4090;49.270;8.696;2022-07-29T12:36:34;31.00;66.30
8095;DHT22;4090;49.270;8.696;2022-07-29T12:39:17;31.10;65.90
8095;DHT22;4090;49.270;8.696;2022-07-29T12:42:10;31.10;65.90
8095;DHT22;4090;49.270;8.696;2022-07-29T12:44:52;31.10;65.00
8095;DHT22;4090;49.270;8.696;2022-07-29T12:47:52;31.10;64.50
8095;DHT22;4090;49.270;8.696;2022-07-29T12:50:35;31.00;63.90
8095;DHT22;4090;49.270;8.696;2022-07-29T12:53:17;30.90;64.50
8095;DHT22;4090;49.270;8.696;2022-07-29T12:56:00;31.00;64.80
8095;DHT22;4090;49.270;8.696;2022-07-29T12:58:44;31.00;65.30
8095;DHT22;4090;49.270;8.696;2022-07-29T13:01:25;31.00;65.40
8095;DHT22;4090;49.270;8.696;2022-07-29T13:04:07;31.00;65.00
8095;DHT22;4090;49.270;8.696;2022-07-29T13:06:58;30.90;64.90
8095;DHT22;4090;49.270;8.696;2022-07-29T13:09:41;30.70;66.00
8095;DHT22;4090;49.270;8.696;2022-07-29T13:12:23;30.70;65.40
8095;DHT22;4090;49.270;8.696;2022-07-29T13:15:14;30.50;65.60
8095;DHT22;4090;49.270;8.696;2022-07-29T13:17:56;30.50;66.00
8095;DHT22;4090;49.270;8.696;2022-07-29T13:20:38;30.50;66.10
8095;DHT22;4090;49.270;8.696;2022-07-29T13:23:20;30.60;66.20
8095;DHT22;4090;49.270;8.696;2022-07-29T13:26:05;30.60;66.30
8095;DHT22;4090;49.270;8.696;2022-07-29T13:28:47;30.60;66.30
8095;DHT22;4090;49.270;8.696;2022-07-29T13:31:30;30.60;66.30
8095;DHT22;4090;49.270;8.696;2022-07-29T13:34:12;30.60;65.80
8095;DHT22;4090;49.270;8.696;2022-07-29T13:36:54;30.50;66.00
8095;DHT22;4090;49.270;8.696;2022-07-29T13:39:36;30.40;66.60
8095;DHT22;4090;49.270;8.696;2022-07-29T13:42:18;30.30;66.90
8095;DHT22;4090;49.270;8.696;2022-07-29T13:45:00;30.30;66.40
8095;DHT22;4090;49.270;8.696;2022-07-29T13:47:43;30.30;69.20
8095;DHT22;4090;49.270;8.696;2022-07-29T13:50:25;30.30;69.60
8095;DHT22;4090;49.270;8.696;2022-07-29T13:53:07;30.20;68.80
8095;DHT22;4090;49.270;8.696;2022-07-29T13:55:49;30.20;68.90
8095;DHT22;4090;49.270;8.696;2022-07-29T13:58:32;30.20;69.10
8095;DHT22;4090;49.270;8.696;2022-07-29T14:01:14;30.30;70.00
8095;DHT22;4090;49.270;8.696;2022-07-29T14:03:57;30.20;69.10
8095;DHT22;4090;49.270;8.696;2022-07-29T14:06:39;30.10;69.60
8095;DHT22;4090;49.270;8.696;2022-07-29T14:09:21;30.10;69.40
8095;DHT22;4090;49.270;8.696;2022-07-29T14:12:03;30.20;69.30
8095;DHT22;4090;49.270;8.696;2022-07-29T14:14:45;30.10;69.40
8095;DHT22;4090;49.270;8.696;2022-07-29T14:17:27;30.10;69.40
8095;DHT22;4090;49.270;8.696;2022-07-29T14:20:10;30.10;69.20
8095;DHT22;4090;49.270;8.696;2022-07-29T14:22:52;30.10;68.80
8095;DHT22;4090;49.270;8.696;2022-07-29T14:25:34;30.10;67.70
8095;DHT22;4090;49.270;8.696;2022-07-29T14:28:16;30.10;67.60
8095;DHT22;4090;49.270;8.696;2022-07-29T14:30:58;30.10;67.70
8095;DHT22;4090;49.270;8.696;2022-07-29T14:33:40;30.10;66.60
8095;DHT22;4090;49.270;8.696;2022-07-29T14:36:23;30.10;65.90
8095;DHT22;4090;49.270;8.696;2022-07-29T14:39:05;30.10;65.40
8095;DHT22;4090;49.270;8.696;2022-07-29T14:41:47;30.00;65.70
8095;DHT22;4090;49.270;8.696;2022-07-29T14:44:28;30.10;65.70
8095;DHT22;4090;49.270;8.696;2022-07-29T14:47:11;30.10;65.10
8095;DHT22;4090;49.270;8.696;2022-07-29T14:49:53;30.10;64.50
8095;DHT22;4090;49.270;8.696;2022-07-29T14:52:36;30.10;64.40
8095;DHT22;4090;49.270;8.696;2022-07-29T14:55:18;30.10;64.40
8095;DHT22;4090;49.270;8.696;2022-07-29T14:58:00;30.10;64.10
8095;DHT22;4090;49.270;8.696;2022-07-29T15:00:42;30.20;63.40
8095;DHT22;4090;49.270;8.696;2022-07-29T15:03:24;30.10;62.90
8095;DHT22;4090;49.270;8.696;2022-07-29T15:06:06;30.10;63.40
8095;DHT22;4090;49.270;8.696;2022-07-29T15:08:49;30.10;63.30
8095;DHT22;4090;49.270;8.696;2022-07-29T15:11:30;30.10;63.10
8095;DHT22;4090;49.270;8.696;2022-07-29T15:14:12;30.00;62.20
8095;DHT22;4090;49.270;8.696;2022-07-29T15:16:54;30.00;62.20
8095;DHT22;4090;49.270;8.696;2022-07-29T15:19:36;30.10;61.60
8095;DHT22;4090;49.270;8.696;2022-07-29T15:22:22;30.00;61.60
8095;DHT22;4090;49.270;8.696;2022-07-29T15:25:07;30.00;61.20
8095;DHT22;4090;49.270;8.696;2022-07-29T15:27:49;30.00;60.90
8095;DHT22;4090;49.270;8.696;2022-07-29T15:30:31;30.00;61.10
8095;DHT22;4090;49.270;8.696;2022-07-29T15:33:13;30.10;60.90
8095;DHT22;4090;49.270;8.696;2022-07-29T15:35:55;30.10;60.10
8095;DHT22;4090;49.270;8.696;2022-07-29T15:38:37;30.20;59.80
8095;DHT22;4090;49.270;8.696;2022-07-29T15:41:22;30.20;59.80
8095;DHT22;4090;49.270;8.696;2022-07-29T15:44:04;30.30;60.20
8095;DHT22;4090;49.270;8.696;2022-07-29T15:46:46;30.30;60.00
8095;DHT22;4090;49.270;8.696;2022-07-29T15:49:46;30.30;59.70
8095;DHT22;4090;49.270;8.696;2022-07-29T15:52:29;30.30;59.40
8095;DHT22;4090;49.270;8.696;2022-07-29T15:55:11;30.30;59.40
8095;DHT22;4090;49.270;8.696;2022-07-29T15:57:56;30.30;59.40
8095;DHT22;4090;49.270;8.696;2022-07-29T16:00:38;30.40;59.60
8095;DHT22;4090;49.270;8.696;2022-07-29T16:03:20;30.40;59.50
8095;DHT22;4090;49.270;8.696;2022-07-29T16:06:02;30.40;58.70
8095;DHT22;4090;49.270;8.696;2022-07-29T16:08:44;30.40;58.20
8095;DHT22;4090;49.270;8.696;2022-07-29T16:11:26;30.50;58.60
8095;DHT22;4090;49.270;8.696;2022-07-29T16:14:09;30.40;57.70
8095;DHT22;4090;49.270;8.696;2022-07-29T16:16:51;30.40;57.90
8095;DHT22;4090;49.270;8.696;2022-07-29T16:19:33;30.40;58.00
8095;DHT22;4090;49.270;8.696;2022-07-29T16:22:15;30.40;57.60
8095;DHT22;4090;49.270;8.696;2022-07-29T16:24:57;30.40;57.80
8095;DHT22;4090;49.270;8.696;2022-07-29T16:27:39;30.50;57.50
8095;DHT22;4090;49.270;8.696;2022-07-29T16:30:22;30.40;57.50
8095;DHT22;4090;49.270;8.696;2022-07-29T16:33:04;30.40;57.20
8095;DHT22;4090;49.270;8.696;2022-07-29T16:35:46;30.30;57.10
8095;DHT22;4090;49.270;8.696;2022-07-29T16:38:27;30.30;57.20
8095;DHT22;4090;49.270;8.696;2022-07-29T16:41:09;30.30;57.40
8095;DHT22;4090;49.270;8.696;2022-07-29T16:43:51;30.30;57.50
8095;DHT22;4090;49.270;8.696;2022-07-29T16:46:36;30.20;57.40
8095;DHT22;4090;49.270;8.696;2022-07-29T16:49:17;30.30;57.50
8095;DHT22;4090;49.270;8.696;2022-07-29T16:51:59;30.20;57.30
8095;DHT22;4090;49.270;8.696;2022-07-29T16:54:41;30.20;57.20
8095;DHT22;4090;49.270;8.696;2022-07-29T16:57:23;30.20;57.10
8095;DHT22;4090;49.270;8.696;2022-07-29T17:00:06;30.20;57.70
8095;DHT22;4090;49.270;8.696;2022-07-29T17:02:49;30.20;57.00
8095;DHT22;4090;49.270;8.696;2022-07-29T17:05:31;30.20;56.60
8095;DHT22;4090;49.270;8.696;2022-07-29T17:08:13;30.20;56.80
8095;DHT22;4090;49.270;8.696;2022-07-29T17:10:55;30.20;56.70
8095;DHT22;4090;49.270;8.696;2022-07-29T17:13:37;30.20;56.90
8095;DHT22;4090;49.270;8.696;2022-07-29T17:16:20;30.20;56.60
8095;DHT22;4090;49.270;8.696;2022-07-29T17:19:05;30.20;56.00
8095;DHT22;4090;49.270;8.696;2022-07-29T17:21:47;30.20;55.80
8095;DHT22;4090;49.270;8.696;2022-07-29T17:24:29;30.30;56.00
8095;DHT22;4090;49.270;8.696;2022-07-29T17:27:11;30.30;55.90
8095;DHT22;4090;49.270;8.696;2022-07-29T17:29:52;30.30;54.90
8095;DHT22;4090;49.270;8.696;2022-07-29T17:32:34;30.20;54.90
8095;DHT22;4090;49.270;8.696;2022-07-29T17:35:19;30.20;54.80
8095;DHT22;4090;49.270;8.696;2022-07-29T17:38:19;30.20;54.50
8095;DHT22;4090;49.270;8.696;2022-07-29T17:41:01;30.20;55.00
8095;DHT22;4090;49.270;8.696;2022-07-29T17:43:43;30.30;55.20
8095;DHT22;4090;49.270;8.696;2022-07-29T17:46:26;30.30;55.30
8095;DHT22;4090;49.270;8.696;2022-07-29T17:49:08;30.30;55.10
8095;DHT22;4090;49.270;8.696;2022-07-29T17:51:51;30.30;54.70
8095;DHT22;4090;49.270;8.696;2022-07-29T17:54:33;30.30;54.40